createdAt,value
2023-03-08T00:00:00.134Z,98.6
2023-03-08T00:05:00.252Z,98.6
2023-03-08T00:10:00.158Z,98.6
2023-03-08T00:15:00.135Z,98.6
2023-03-08T00:20:00.155Z,98.5
2023-03-08T00:25:00.093Z,98.5
2023-03-08T00:30:00.223Z,98.5
2023-03-08T00:35:00.136Z,98.6
2023-03-08T00:40:00.248Z,98.7
2023-03-08T00:45:00.125Z,98.7
2023-03-08T00:50:00.113Z,98.8
2023-03-08T00:55:00.111Z,98.9
2023-03-08T01:00:00.209Z,98.9
2023-03-08T01:05:00.151Z,98.9
2023-03-08T01:10:00.136Z,98.9
2023-03-08T01:15:00.118Z,98.9
2023-03-08T01:20:00.133Z,98.9
2023-03-08T01:25:00.159Z,98.9
2023-03-08T01:30:00.151Z,98.9
2023-03-08T01:35:00.119Z,98.9
2023-03-08T01:40:00.265Z,98.9
2023-03-08T01:45:00.087Z,98.9
2023-03-08T01:50:00.116Z,98.9
2023-03-08T01:55:00.115Z,98.9
2023-03-08T02:00:00.167Z,98.9
2023-03-08T02:10:00.148Z,98.9
2023-03-08T02:15:00.152Z,99
2023-03-08T02:20:00.165Z,99
2023-03-08T02:25:00.123Z,99.1
2023-03-08T02:30:00.119Z,99.1
2023-03-08T02:35:00.139Z,99.1
2023-03-08T02:40:00.206Z,99.1
2023-03-08T02:45:00.130Z,99.1
2023-03-08T02:50:00.116Z,99
2023-03-08T02:55:00.137Z,98.9
2023-03-08T03:00:00.158Z,98.9
2023-03-08T03:05:00.124Z,98.8
2023-03-08T03:10:00.143Z,98.7
2023-03-08T03:15:00.112Z,98.6
2023-03-08T03:20:00.195Z,98.5
2023-03-08T03:25:00.126Z,98.5
2023-03-08T03:30:00.127Z,98.7
2023-03-08T03:35:00.125Z,98.8
2023-03-08T03:40:00.178Z,98.9
2023-03-08T03:45:00.131Z,98.9
2023-03-08T03:50:00.116Z,99.1
2023-03-08T03:55:00.145Z,99.1
2023-03-08T04:00:00.173Z,99.1
2023-03-08T04:05:00.100Z,99.1
2023-03-08T04:10:00.145Z,99.1
2023-03-08T04:15:00.149Z,99.1
2023-03-08T04:20:00.168Z,99
2023-03-08T04:25:00.100Z,99
2023-03-08T04:30:00.144Z,99
2023-03-08T04:35:00.155Z,99.1
2023-03-08T04:40:00.160Z,99.1
2023-03-08T04:45:00.145Z,99.1
2023-03-08T04:50:00.118Z,99.1
2023-03-08T04:55:00.105Z,99.1
2023-03-08T05:00:00.175Z,99.1
2023-03-08T05:05:00.191Z,99.1
2023-03-08T05:10:00.146Z,99.1
2023-03-08T05:15:00.135Z,99.1
2023-03-08T05:20:00.153Z,99.1
2023-03-08T05:25:00.673Z,99.1
2023-03-08T05:30:00.107Z,99.1
2023-03-08T05:35:00.119Z,99.1
2023-03-08T05:40:00.145Z,98.9
2023-03-08T05:45:00.158Z,99.2
2023-03-08T05:50:00.118Z,99.2
2023-03-08T05:55:00.100Z,99.2
2023-03-08T06:00:00.188Z,99.2
2023-03-08T06:05:00.213Z,99.3
2023-03-08T06:10:00.137Z,99.3
2023-03-08T06:15:00.108Z,99.3
2023-03-08T06:20:00.241Z,99.4
2023-03-08T06:25:00.120Z,99.4
2023-03-08T06:30:00.115Z,99.4
2023-03-08T06:35:00.093Z,99.4
2023-03-08T06:40:00.173Z,99.4
2023-03-08T06:45:00.130Z,99.4
2023-03-08T06:50:00.122Z,99.5
2023-03-08T06:55:00.133Z,99.7
2023-03-08T07:00:00.203Z,99.9
2023-03-08T07:05:00.090Z,99.9
2023-03-08T07:10:00.140Z,99.9
2023-03-08T07:15:00.123Z,99.9
2023-03-08T07:20:00.153Z,99.9
2023-03-08T07:25:00.132Z,99.9
2023-03-08T07:30:00.147Z,99.9
2023-03-08T07:35:00.104Z,99.9
2023-03-08T07:40:00.159Z,99.9
2023-03-08T07:45:00.104Z,99.5
2023-03-08T07:50:00.122Z,99.4
2023-03-08T07:55:00.159Z,99.1
2023-03-08T08:00:00.151Z,99
2023-03-08T08:05:00.158Z,98.5
2023-03-08T08:10:00.106Z,97.7
2023-03-08T08:15:00.165Z,97.8
2023-03-08T08:20:00.133Z,98.1
2023-03-08T08:25:00.135Z,98.4
2023-03-08T08:30:00.147Z,97.9
2023-03-08T08:35:00.446Z,98
2023-03-08T08:40:00.180Z,97.8
2023-03-08T08:45:00.163Z,97.4
2023-03-08T08:50:00.138Z,96.8
2023-03-08T08:55:00.099Z,97.4
2023-03-08T09:00:00.198Z,96.9
2023-03-08T09:05:00.221Z,96.5
2023-03-08T09:10:00.111Z,96.3
2023-03-08T09:15:00.119Z,96.7
2023-03-08T09:20:00.234Z,96.2
2023-03-08T09:25:00.113Z,95.3
2023-03-08T09:30:00.149Z,95.4
2023-03-08T09:35:00.191Z,95.6
2023-03-08T09:40:00.169Z,96.3
2023-03-08T09:45:00.149Z,96.7
2023-03-08T09:50:00.132Z,96.9
2023-03-08T09:55:00.185Z,97.2
2023-03-08T10:00:00.174Z,97
2023-03-08T10:05:12.106Z,97
2023-03-08T10:10:00.138Z,97.5
2023-03-08T10:15:00.091Z,97.5
2023-03-08T10:20:00.165Z,97.8
2023-03-08T10:25:00.102Z,97.8
2023-03-08T10:30:00.155Z,98.2
2023-03-08T10:35:00.154Z,98.6
2023-03-08T10:40:00.146Z,99
2023-03-08T10:45:00.125Z,99.3
2023-03-08T10:50:00.170Z,99.5
2023-03-08T10:55:00.117Z,99.4
2023-03-08T11:00:00.197Z,99.6
2023-03-08T11:05:00.247Z,99.9
2023-03-08T11:10:00.117Z,99.9
2023-03-08T11:15:00.264Z,99.9
2023-03-08T11:20:00.294Z,99.9
2023-03-08T11:25:00.173Z,99.7
2023-03-08T11:30:00.192Z,99.9
2023-03-08T11:35:00.157Z,99.9
2023-03-08T11:40:00.180Z,99.9
2023-03-08T11:45:00.136Z,99.9
2023-03-08T11:50:00.109Z,99.9
2023-03-08T11:55:00.221Z,99.9
2023-03-08T12:00:00.249Z,99.9
2023-03-08T12:05:00.214Z,99.9
2023-03-08T12:10:00.246Z,99.9
2023-03-08T12:15:00.277Z,99.9
2023-03-08T12:20:00.152Z,99.9
2023-03-08T12:25:00.128Z,99.9
2023-03-08T12:30:00.106Z,99.9
2023-03-08T12:35:00.164Z,99.9
2023-03-08T12:40:00.203Z,99.9
2023-03-08T12:45:00.118Z,99.9
2023-03-08T12:50:00.259Z,99.9
2023-03-08T12:55:00.158Z,99.9
2023-03-08T13:00:00.171Z,99.9
2023-03-08T13:05:00.195Z,99.9
2023-03-08T13:10:00.133Z,99.9
2023-03-08T13:15:00.108Z,99.9
2023-03-08T13:20:00.246Z,99.9
2023-03-08T13:25:00.160Z,99.9
2023-03-08T13:30:00.247Z,99.9
2023-03-08T13:35:00.184Z,99.9
2023-03-08T13:40:00.271Z,99.9
2023-03-08T13:45:00.120Z,99.9
2023-03-08T13:50:00.141Z,99.9
2023-03-08T13:55:00.233Z,99.9
2023-03-08T14:00:00.306Z,99.9
2023-03-08T14:05:00.277Z,99.9
2023-03-08T14:10:00.136Z,99.9
2023-03-08T14:15:00.254Z,99.9
2023-03-08T14:20:00.285Z,99.9
2023-03-08T14:25:00.220Z,99.9
2023-03-08T14:30:00.176Z,99.9
2023-03-08T14:35:00.169Z,99.9
2023-03-08T14:40:00.186Z,99.9
2023-03-08T14:45:00.125Z,99.9
2023-03-08T14:50:00.173Z,99.9
2023-03-08T14:55:00.135Z,99.9
2023-03-08T15:00:00.212Z,99.9
2023-03-08T15:05:00.137Z,99.9
2023-03-08T15:10:00.144Z,99.9
2023-03-08T15:15:00.123Z,99.9
2023-03-08T15:20:00.220Z,99.9
2023-03-08T15:25:00.135Z,99.9
2023-03-08T15:30:00.114Z,99.9
2023-03-08T15:35:00.116Z,99.9
2023-03-08T15:40:00.168Z,99.9
2023-03-08T15:45:00.113Z,99.9
2023-03-08T15:50:00.128Z,99.9
2023-03-08T15:55:00.128Z,99.9
2023-03-08T16:00:00.204Z,99.9
2023-03-08T16:05:00.197Z,99.9
2023-03-08T16:10:00.099Z,99.9
2023-03-08T16:15:00.175Z,99.9
2023-03-08T16:20:00.271Z,99.9
2023-03-08T16:25:00.142Z,99.9
2023-03-08T16:30:00.130Z,99.9
2023-03-08T16:35:00.148Z,99.9
2023-03-08T16:40:00.167Z,99.9
2023-03-08T16:45:00.146Z,99.9
2023-03-08T16:50:00.155Z,99.9
2023-03-08T16:55:00.156Z,99.9
2023-03-08T17:00:00.211Z,99.9
2023-03-08T17:05:00.150Z,99.9
2023-03-08T17:10:00.159Z,99.9
2023-03-08T17:15:00.151Z,99.9
2023-03-08T17:20:00.232Z,99.9
2023-03-08T17:25:00.155Z,99.9
2023-03-08T17:30:00.195Z,99.9
2023-03-08T17:35:00.132Z,99.9
2023-03-08T17:40:00.287Z,99.9
2023-03-08T17:45:00.135Z,99.9
2023-03-08T17:50:00.262Z,99.9
2023-03-08T17:55:00.110Z,99.9
2023-03-08T18:00:00.271Z,99.9
2023-03-08T18:05:00.164Z,99.9
2023-03-08T18:10:00.138Z,99.9
2023-03-08T18:15:00.123Z,99.9
2023-03-08T18:20:00.162Z,99.9
2023-03-08T18:25:00.120Z,99.9
2023-03-08T18:30:00.131Z,99.9
2023-03-08T18:35:00.157Z,99.9
2023-03-08T18:40:00.142Z,99.9
2023-03-08T18:45:00.126Z,99.9
2023-03-08T18:50:00.124Z,99.9
2023-03-08T18:55:00.141Z,99.9
2023-03-08T19:00:00.177Z,99.9
2023-03-08T19:05:00.124Z,99.9
2023-03-08T19:10:00.224Z,99.9
2023-03-08T19:15:00.151Z,99.9
2023-03-08T19:20:00.157Z,99.9
2023-03-08T19:25:00.125Z,99.9
2023-03-08T19:30:00.159Z,99.9
2023-03-08T19:35:00.137Z,99.9
2023-03-08T19:40:01.349Z,99.9
2023-03-08T19:45:00.122Z,99.9
2023-03-08T19:50:00.122Z,99.9
2023-03-08T19:55:00.124Z,99.9
2023-03-08T20:00:00.249Z,99.9
2023-03-08T20:05:00.134Z,99.9
2023-03-08T20:10:10.470Z,99.9
2023-03-08T20:15:00.157Z,99.9
2023-03-08T20:20:00.195Z,99.9
2023-03-08T20:25:00.145Z,99.9
2023-03-08T20:30:00.149Z,99.9
2023-03-08T20:35:00.116Z,99.9
2023-03-08T20:40:00.179Z,99.9
2023-03-08T20:45:00.161Z,99.9
2023-03-08T20:50:00.114Z,99.9
2023-03-08T20:55:00.131Z,99.9
2023-03-08T21:00:00.241Z,99.9
2023-03-08T21:05:00.108Z,99.9
2023-03-08T21:10:00.167Z,99.9
2023-03-08T21:15:00.169Z,99.9
2023-03-08T21:20:00.198Z,99.9
2023-03-08T21:25:00.138Z,99.9
2023-03-08T21:30:00.132Z,99.9
2023-03-08T21:35:00.124Z,99.9
2023-03-08T21:40:00.252Z,99.9
2023-03-08T21:45:00.112Z,99.9
2023-03-08T21:50:00.143Z,99.9
2023-03-08T21:55:00.181Z,99.9
2023-03-08T22:00:00.160Z,99.9
2023-03-08T22:05:00.096Z,99.9
2023-03-08T22:10:00.111Z,99.9
2023-03-08T22:15:00.128Z,99.9
2023-03-08T22:20:00.135Z,99.9
2023-03-08T22:25:00.140Z,99.9
2023-03-08T22:30:00.157Z,99.9
2023-03-08T22:35:00.110Z,99.9
2023-03-08T22:40:00.210Z,99.9
2023-03-08T22:45:00.124Z,99.9
2023-03-08T22:50:00.131Z,99.9
2023-03-08T22:55:00.096Z,99.9
2023-03-08T23:00:00.186Z,99.9
2023-03-08T23:05:00.119Z,99.9
2023-03-08T23:10:00.135Z,99.9
2023-03-08T23:15:00.138Z,99.9
2023-03-08T23:20:00.126Z,99.9
2023-03-08T23:25:00.130Z,99.9
2023-03-08T23:30:00.125Z,99.9
2023-03-08T23:35:00.121Z,99.9
2023-03-08T23:40:00.169Z,99.9
2023-03-08T23:45:00.144Z,99.9
2023-03-08T23:50:00.103Z,99.9
2023-03-08T23:55:00.189Z,99.9
